AirNav   Textron
 
 1626 users online  

2UT2 High Meadow Ranch Airport
Duck Creek Village, Utah, USA

GOING TO DUCK CREEK VILLAGE?


FAA INFORMATION EFFECTIVE 12 OCTOBER 2017

Location

FAA Identifier: 2UT2
Lat/Long: 37-31-42.3350N / 112-39-39.1900W
37-31.705583N / 112-39.653167W
37.5284264 / -112.6608861
(estimated)
Elevation: 8280 ft. / 2524 m
Variation: 13E (2000)
From city: 1 mile N of DUCK CREEK VILLAGE, UT
Time zone: UTC -6 (UTC -7 during Standard Time)
Zip code: 84710

Airport Operations

Airport use: Private use. Permission required prior to landing
Activation date: 02/2002
Control tower: no
ARTCC: SALT LAKE CITY CENTER
FSS: CEDAR CITY FLIGHT SERVICE STATION
Attendance: UNATNDD
Wind indicator: yes
Segmented circle: no

Nearby radio navigation aids

VOR radial/distance  VOR name  Freq  Var
BCEr225/19.5BRYCE CANYON VORTAC112.8015E
EHKr113/24.8ENOCH VOR/DME117.3016E

 
NDB name  Hdg/Dist  Freq  Var  ID
COLORADO CITY013/37.940313EAZC .- --.. -.-.

Airport Services

Runway Information

Runway 8/26

Dimensions: 2071 x 40 ft. / 631 x 12 m
Surface: turf
RUNWAY 8  RUNWAY 26
Latitude: 37-31.654167N37-31.757000N
Longitude: 112-39.857500W112-39.448833W
Elevation: 8280.0 ft.8280.0 ft.
Traffic pattern: leftleft
Obstructions: 80 ft. trees, 500 ft. from runwaynone

Airport Ownership and Management from official FAA records

Ownership: Privately-owned
Owner: GARY RAYMOND HALVERSON
1696 REDROCK
LAS VEGAS, NV 89146
Phone 702-876-5444
Manager: GARY RAYMOND HALVERSON
1696 REDROCK
LAS VEGAS, NV 89146
Phone 702-876-5444

Instrument Procedures

There are no published instrument procedures at 2UT2.

Some nearby airports with instrument procedures:

U55 - Panguitch Municipal Airport (23 nm NE)
KCDC - Cedar City Regional Airport (23 nm NW)
KBCE - Bryce Canyon Airport (27 nm NE)
KKNB - Kanab Municipal Airport (32 nm S)
KAZC - Colorado City Municipal Airport (38 nm SW)
 
Loc | Ops | Rwys | IFR | FBO | Links
Com | Nav | Svcs | Stats | Notes


 
Area around 2UT2 (High Meadow Ranch Airport)
 
Road maps at: MapQuest Bing Google
 
Aerial photo
No photo
 
Sectional chart

 
Airport distance calculator
Flying to High Meadow Ranch Airport? Find the distance to fly.

From to 2UT2

Sunrise and sunset
Times for 19-Oct-2017
 Local
(UTC-6)
 Zulu
(UTC)
Morning civil twilight07:1713:17
Sunrise07:4413:44
Sunset18:4800:48
Evening civil twilight19:1401:14

Current date and time
Zulu (UTC)  19-Oct-2017 18:42:23
Local (UTC-6)  19-Oct-2017 12:42:23
 
METAR
KCDC 
23nm NW 
191753Z AUTO 32003KT 10SM BKN085 BKN110 17/07 A3004 RMK AO2 SLP128 T01670067 10167 20056 58007
KBCE 
26nm NE 
191753Z AUTO 13011KT 10SM CLR 16/02 A3018 RMK AO2 SLP128 60001 T01560022 10156 20050 58006
KAZC 
38nm SW 
191815Z AUTO 14008KT 10SM CLR 25/00 A3005 RMK AO2
TAF
KCDC 
23nm NW 
191745Z 1918/2018 20011KT P6SM SCT090 BKN150 FM200300 19007KT P6SM SCT120 FM201200 20018G25KT P6SM SCT200
KBCE 
26nm NE 
191745Z 1918/2018 14011KT P6SM SCT080 BKN100 FM200300 25007KT P6SM SCT100 BKN120 FM201600 18018G26KT P6SM BKN200
NOTAMs
Click for the latest NOTAMs
NOTAMs are issued by the DoD/FAA and will open in a separate window not controlled by AirNav.

 

 
 

Would you like to see your business listed on this page?

 If your business provides an interesting product or service to pilots, flight crews, aircraft, or users of the High Meadow Ranch Airport, you should consider listing it here.  To start the listing process, click on the button below
 
Add a business
 

Other Pages about High Meadow Ranch Airport

Update a link
 
Copyright © AirNav, LLC. All rights reserved. Privacy Policy  Contact